KGTF

Great Falls International Airport

Great Falls, Montana, USA
METAR KGTF 220953Z 23008KT 10SM OVC085 14/10 A2997 RMK AO2 SLP125 T01440100
Observed Flight Rules
May-22 @ 09:53 UTC (14 minutes ago) Visual Flight Rules
Wind Visibility Clouds
230° at 8 knots 10 miles
  • Overcast at 8,500' AGL
Temperatures Readings
Current 14°C / 57°F
Dewpoint 10°C / 50°F
Humidity 77%
Altimeter 29.97" Hg
Pressure 1012.5 hPa
Elevation 1119
METAR KGTF 220953Z 23008KT 10SM OVC085 14/10 A2997 RMK AO2 SLP125 T01440100
Observed Flight Rules
May-22 @ 09:53 UTC
(14 minutes ago)
VFR
Wind Visibility
230° at 8 knots 10 miles
Clouds
  • Overcast at 8,500' AGL
Temperature Dewpoint
14°C / 57°F 10°C / 50°F
Humidity Altimeter Pressure
77% 29.97" Hg 1012.5 hPa